Las Vegas, Nevada
Traffic Map
Current Weather Conditions
Las Vegas, Nevada
Clear
Clear
87°
Feels Like: 87°
Wind Chill: 87° Ceiling: Unl
Heat Index: 87° Visibility: 10mi
Dew Point: 26° Wind: 5mph
Humidity: 11% Direction: 200° (SSW)
Pressure: 29.83in Gusts: 0mph
Raw Report DataKLAS 260956Z 20004KT 10SM CLR 31/M03 A2983 RMK AO2 SLP068 T03061033
Traffic Incident Summary
Active as of:
Severity:
Category:
InformationThere was an issue retrieving the traffic information for this location. Please try a different location or try again shortly.
Advertisements
Track Severe Weather on mobile